< < Back
Terminal Aerodrome Forecast


Current Version              Previous Versions:   1  2  3  4  5  6  7  8  9  

Terminal Aerodrome Forecast

925
FTUS42 KMLB 151700
TAFDAB
TAF
KDAB 151726Z 1518/1618 07008KT P6SM VCSH SCT035 SCT045 BKN080
     FM152200 09008KT P6SM VCTS SCT035CB BKN250
     FM160200 VRB03KT P6SM SCT150 BKN250
     FM161400 27005KT P6SM FEW030 SCT120 BKN250=



Latest METAR

867
SAUS80 KWBC 161300 RRA
MTRDAB
METAR KDAB 161253Z 27004KT 9SM FEW029 FEW140 SCT250 25/23 A3008 RMK AO2
SLP186 T02500233


USA.gov is the U.S. government's official web portal to all federal, state and local government web resources and services.